QFA1608 YPPH-YPKG
Flight info
| Callsign | QFA1608 |
|---|---|
| Flight time | 0h 50m |
| Altitude | 33000 |
| Route | AMANA Y31 LAKIR Y69 BOSLI Y67 KG |
| Aircraft | A320/M-SDE3FGHIRWY/LB1 |
Departure
| Time | 2026-04-11 05:47 |
|---|---|
| Airport | Perth International Airport (YPPH) |
Arrival
| Time | 2026-04-11 06:38 |
|---|---|
| Airport | Kalgoorlie Boulder Airport (YPKG) |
| Time | Latitude | Longitude | Altitude | Speed | Heading |
|---|---|---|---|---|---|
| 2026-04-11 05:14 | -31.93243 | 115.96182 | 57 ft | 0 kts | 220° |
| 2026-04-11 05:15 | -31.93242 | 115.96182 | 57 ft | 0 kts | 220° |
| 2026-04-11 05:34 | -31.93237 | 115.96188 | 50 ft | 4 kts | 220° |
| 2026-04-11 05:34 | -31.93217 | 115.96208 | 48 ft | 3 kts | 219° |
| 2026-04-11 05:35 | -31.93211 | 115.96213 | 48 ft | 0 kts | 219° |
| 2026-04-11 05:37 | -31.93213 | 115.96212 | 48 ft | 0 kts | 213° |
| 2026-04-11 05:38 | -31.93216 | 115.96214 | 48 ft | 0 kts | 175° |
| 2026-04-11 05:38 | -31.93217 | 115.96224 | 53 ft | 4 kts | 101° |
| 2026-04-11 05:38 | -31.93224 | 115.96279 | 53 ft | 8 kts | 98° |
| 2026-04-11 05:38 | -31.93253 | 115.96343 | 52 ft | 9 kts | 160° |
| 2026-04-11 05:39 | -31.93303 | 115.96323 | 52 ft | 8 kts | 191° |
| 2026-04-11 05:39 | -31.93359 | 115.96317 | 52 ft | 9 kts | 174° |
| 2026-04-11 05:39 | -31.93421 | 115.96360 | 50 ft | 12 kts | 129° |
| 2026-04-11 05:39 | -31.93458 | 115.96426 | 48 ft | 9 kts | 154° |
| 2026-04-11 05:40 | -31.93520 | 115.96417 | 50 ft | 9 kts | 196° |
| 2026-04-11 05:40 | -31.93578 | 115.96399 | 55 ft | 8 kts | 193° |
| 2026-04-11 05:40 | -31.93634 | 115.96384 | 52 ft | 8 kts | 193° |
| 2026-04-11 05:40 | -31.93696 | 115.96367 | 51 ft | 9 kts | 193° |
| 2026-04-11 05:41 | -31.93735 | 115.96356 | 52 ft | 1 kts | 194° |
| 2026-04-11 05:41 | -31.93736 | 115.96355 | 52 ft | 1 kts | 194° |
| 2026-04-11 05:42 | -31.93795 | 115.96337 | 54 ft | 13 kts | 194° |
| 2026-04-11 05:42 | -31.93890 | 115.96309 | 52 ft | 15 kts | 194° |
| 2026-04-11 05:42 | -31.93993 | 115.96279 | 56 ft | 16 kts | 194° |
| 2026-04-11 05:42 | -31.94105 | 115.96245 | 55 ft | 18 kts | 194° |
| 2026-04-11 05:43 | -31.94229 | 115.96208 | 54 ft | 19 kts | 193° |
| 2026-04-11 05:43 | -31.94362 | 115.96170 | 60 ft | 21 kts | 193° |
| 2026-04-11 05:43 | -31.94511 | 115.96129 | 57 ft | 23 kts | 194° |
| 2026-04-11 05:43 | -31.94662 | 115.96087 | 62 ft | 22 kts | 194° |
| 2026-04-11 05:44 | -31.94814 | 115.96041 | 62 ft | 23 kts | 194° |
| 2026-04-11 05:44 | -31.94974 | 115.95995 | 63 ft | 24 kts | 194° |
| 2026-04-11 05:44 | -31.95140 | 115.95946 | 63 ft | 25 kts | 194° |
| 2026-04-11 05:44 | -31.95314 | 115.95895 | 67 ft | 26 kts | 194° |
| 2026-04-11 05:45 | -31.95499 | 115.95841 | 64 ft | 29 kts | 194° |
| 2026-04-11 05:45 | -31.95634 | 115.95801 | 66 ft | 16 kts | 194° |
| 2026-04-11 05:45 | -31.95732 | 115.95772 | 66 ft | 12 kts | 194° |
| 2026-04-11 05:45 | -31.95802 | 115.95769 | 69 ft | 10 kts | 158° |
| 2026-04-11 05:46 | -31.95838 | 115.95839 | 73 ft | 11 kts | 103° |
| 2026-04-11 05:46 | -31.95851 | 115.95926 | 73 ft | 10 kts | 93° |
| 2026-04-11 05:46 | -31.95803 | 115.95987 | 68 ft | 14 kts | 18° |
| 2026-04-11 05:46 | -31.95512 | 115.96074 | 72 ft | 78 kts | 14° |
| 2026-04-11 05:47 | -31.94781 | 115.96291 | 57 ft | 135 kts | 14° |
| 2026-04-11 05:47 | -31.93757 | 115.96574 | 266 ft | 153 kts | 13° |
| 2026-04-11 05:47 | -31.92682 | 115.96841 | 679 ft | 164 kts | 16° |
| 2026-04-11 05:47 | -31.91522 | 115.97187 | 992 ft | 181 kts | 17° |
| 2026-04-11 05:48 | -31.90252 | 115.97574 | 1346 ft | 198 kts | 17° |
| 2026-04-11 05:48 | -31.88846 | 115.97998 | 1797 ft | 214 kts | 17° |
| 2026-04-11 05:48 | -31.87464 | 115.98607 | 2587 ft | 213 kts | 37° |
| 2026-04-11 05:48 | -31.86514 | 115.99955 | 3174 ft | 225 kts | 69° |
| 2026-04-11 05:49 | -31.86238 | 116.01848 | 3522 ft | 248 kts | 85° |
| 2026-04-11 05:49 | -31.86114 | 116.03945 | 4108 ft | 262 kts | 85° |
| 2026-04-11 05:49 | -31.85990 | 116.06120 | 4916 ft | 270 kts | 85° |
| 2026-04-11 05:49 | -31.85858 | 116.08349 | 5694 ft | 277 kts | 83° |
| 2026-04-11 05:50 | -31.85717 | 116.10648 | 6434 ft | 285 kts | 83° |
| 2026-04-11 05:50 | -31.85512 | 116.12990 | 7219 ft | 289 kts | 77° |
| 2026-04-11 05:50 | -31.85079 | 116.15284 | 7978 ft | 293 kts | 75° |
| 2026-04-11 05:50 | -31.84622 | 116.17645 | 8754 ft | 298 kts | 75° |
| 2026-04-11 05:51 | -31.84156 | 116.20042 | 9516 ft | 302 kts | 75° |
| 2026-04-11 05:51 | -31.83683 | 116.22472 | 10235 ft | 308 kts | 75° |
| 2026-04-11 05:51 | -31.83186 | 116.25015 | 10480 ft | 331 kts | 75° |
| 2026-04-11 05:51 | -31.82653 | 116.27722 | 10791 ft | 347 kts | 75° |
| 2026-04-11 05:52 | -31.82107 | 116.30515 | 11380 ft | 353 kts | 76° |
| 2026-04-11 05:52 | -31.81557 | 116.33340 | 12036 ft | 357 kts | 75° |
| 2026-04-11 05:52 | -31.81001 | 116.36202 | 12702 ft | 360 kts | 76° |
| 2026-04-11 05:52 | -31.80440 | 116.39083 | 13400 ft | 363 kts | 76° |
| 2026-04-11 05:53 | -31.79872 | 116.41989 | 14049 ft | 367 kts | 76° |
| 2026-04-11 05:53 | -31.79298 | 116.44917 | 14663 ft | 369 kts | 76° |
| 2026-04-11 05:53 | -31.78718 | 116.47865 | 15248 ft | 372 kts | 75° |
| 2026-04-11 05:53 | -31.78133 | 116.50837 | 15848 ft | 374 kts | 76° |
| 2026-04-11 05:54 | -31.77546 | 116.53819 | 16448 ft | 376 kts | 75° |
| 2026-04-11 05:54 | -31.76955 | 116.56825 | 17058 ft | 379 kts | 76° |
| 2026-04-11 05:54 | -31.76331 | 116.59796 | 17650 ft | 380 kts | 71° |
| 2026-04-11 05:54 | -31.75320 | 116.62660 | 18034 ft | 380 kts | 60° |
| 2026-04-11 05:55 | -31.73855 | 116.65223 | 18122 ft | 377 kts | 48° |
| 2026-04-11 05:55 | -31.72063 | 116.67467 | 18122 ft | 376 kts | 44° |
| 2026-04-11 05:55 | -31.70251 | 116.69680 | 18127 ft | 376 kts | 45° |
| 2026-04-11 05:55 | -31.68444 | 116.71899 | 18130 ft | 376 kts | 44° |
| 2026-04-11 05:56 | -31.66643 | 116.74120 | 18123 ft | 376 kts | 45° |
| 2026-04-11 05:56 | -31.64838 | 116.76346 | 18123 ft | 376 kts | 45° |
| 2026-04-11 05:56 | -31.63029 | 116.78579 | 18382 ft | 379 kts | 44° |
| 2026-04-11 05:56 | -31.61208 | 116.80830 | 18941 ft | 381 kts | 45° |
| 2026-04-11 05:57 | -31.59372 | 116.83099 | 19477 ft | 385 kts | 45° |
| 2026-04-11 05:57 | -31.57521 | 116.85380 | 19986 ft | 388 kts | 44° |
| 2026-04-11 05:57 | -31.55740 | 116.87780 | 20498 ft | 393 kts | 53° |
| 2026-04-11 05:57 | -31.54312 | 116.90534 | 20973 ft | 398 kts | 62° |
| 2026-04-11 05:58 | -31.53045 | 116.93443 | 21483 ft | 401 kts | 62° |
| 2026-04-11 05:58 | -31.51772 | 116.96372 | 21977 ft | 404 kts | 62° |
| 2026-04-11 05:58 | -31.50487 | 116.99321 | 22462 ft | 408 kts | 62° |
| 2026-04-11 05:58 | -31.49191 | 117.02290 | 22961 ft | 411 kts | 62° |
| 2026-04-11 05:59 | -31.47893 | 117.05246 | 23405 ft | 415 kts | 62° |
| 2026-04-11 05:59 | -31.46566 | 117.08260 | 23856 ft | 418 kts | 61° |
| 2026-04-11 05:59 | -31.45230 | 117.11293 | 24271 ft | 419 kts | 62° |
| 2026-04-11 05:59 | -31.43889 | 117.14339 | 24697 ft | 421 kts | 62° |
| 2026-04-11 06:00 | -31.42545 | 117.17390 | 25125 ft | 422 kts | 62° |
| 2026-04-11 06:00 | -31.41194 | 117.20452 | 25557 ft | 423 kts | 61° |
| 2026-04-11 06:00 | -31.39843 | 117.23516 | 25976 ft | 424 kts | 62° |
| 2026-04-11 06:00 | -31.38486 | 117.26591 | 26390 ft | 426 kts | 62° |
| 2026-04-11 06:01 | -31.37125 | 117.29677 | 26791 ft | 427 kts | 62° |
| 2026-04-11 06:01 | -31.35760 | 117.32770 | 27176 ft | 428 kts | 62° |
| 2026-04-11 06:01 | -31.34391 | 117.35871 | 27555 ft | 430 kts | 62° |
| 2026-04-11 06:01 | -31.33015 | 117.38978 | 27957 ft | 431 kts | 62° |
| 2026-04-11 06:02 | -31.31631 | 117.42096 | 28333 ft | 432 kts | 62° |
| 2026-04-11 06:02 | -31.30244 | 117.45219 | 28708 ft | 434 kts | 62° |
| 2026-04-11 06:02 | -31.28847 | 117.48354 | 29093 ft | 435 kts | 62° |
| 2026-04-11 06:02 | -31.27448 | 117.51502 | 29444 ft | 437 kts | 63° |
| 2026-04-11 06:03 | -31.26059 | 117.54667 | 29817 ft | 439 kts | 63° |
| 2026-04-11 06:03 | -31.24732 | 117.57835 | 30159 ft | 440 kts | 64° |
| 2026-04-11 06:03 | -31.23421 | 117.61077 | 30426 ft | 443 kts | 65° |
| 2026-04-11 06:03 | -31.22123 | 117.64349 | 30675 ft | 445 kts | 65° |
| 2026-04-11 06:04 | -31.20816 | 117.67649 | 30926 ft | 448 kts | 65° |
| 2026-04-11 06:04 | -31.19501 | 117.70949 | 31242 ft | 449 kts | 65° |
| 2026-04-11 06:04 | -31.18169 | 117.74251 | 31540 ft | 451 kts | 64° |
| 2026-04-11 06:04 | -31.16816 | 117.77565 | 31833 ft | 452 kts | 64° |
| 2026-04-11 06:05 | -31.15452 | 117.80886 | 32123 ft | 454 kts | 64° |
| 2026-04-11 06:05 | -31.14080 | 117.84216 | 32412 ft | 456 kts | 64° |
| 2026-04-11 06:05 | -31.12706 | 117.87559 | 32721 ft | 458 kts | 64° |
| 2026-04-11 06:05 | -31.11327 | 117.90917 | 33017 ft | 460 kts | 64° |
| 2026-04-11 06:06 | -31.09037 | 117.96509 | 33121 ft | 456 kts | 64° |
| 2026-04-11 06:06 | -31.07670 | 117.99848 | 33117 ft | 455 kts | 64° |
| 2026-04-11 06:07 | -31.04477 | 118.07614 | 33116 ft | 454 kts | 64° |
| 2026-04-11 06:07 | -31.02205 | 118.13127 | 33120 ft | 454 kts | 64° |
| 2026-04-11 06:08 | -30.99467 | 118.19759 | 33120 ft | 454 kts | 64° |
| 2026-04-11 06:08 | -30.96293 | 118.27439 | 33112 ft | 453 kts | 64° |
| 2026-04-11 06:09 | -30.93995 | 118.32974 | 33113 ft | 453 kts | 64° |
| 2026-04-11 06:09 | -30.91252 | 118.39586 | 33113 ft | 454 kts | 64° |
| 2026-04-11 06:10 | -30.88490 | 118.46204 | 33122 ft | 454 kts | 63° |
| 2026-04-11 06:10 | -30.85728 | 118.52819 | 33125 ft | 454 kts | 63° |
| 2026-04-11 06:11 | -30.82970 | 118.59440 | 33114 ft | 455 kts | 63° |
| 2026-04-11 06:11 | -30.80187 | 118.66113 | 33130 ft | 464 kts | 63° |
| 2026-04-11 06:12 | -30.77357 | 118.72872 | 33129 ft | 470 kts | 63° |
| 2026-04-11 06:12 | -30.74487 | 118.79710 | 33133 ft | 471 kts | 63° |
| 2026-04-11 06:13 | -30.72053 | 118.86758 | 33131 ft | 471 kts | 76° |
| 2026-04-11 06:13 | -30.71353 | 118.94330 | 33137 ft | 472 kts | 87° |
| 2026-04-11 06:14 | -30.71028 | 119.01941 | 33132 ft | 471 kts | 87° |
| 2026-04-11 06:14 | -30.70681 | 119.09547 | 33130 ft | 472 kts | 87° |
| 2026-04-11 06:15 | -30.70339 | 119.17177 | 33142 ft | 472 kts | 87° |
| 2026-04-11 06:15 | -30.69996 | 119.24797 | 33138 ft | 472 kts | 86° |
| 2026-04-11 06:16 | -30.69648 | 119.32409 | 32371 ft | 475 kts | 86° |
| 2026-04-11 06:16 | -30.69473 | 119.36237 | 31737 ft | 472 kts | 86° |
| 2026-04-11 06:16 | -30.69299 | 119.40023 | 31153 ft | 468 kts | 85° |
| 2026-04-11 06:16 | -30.69124 | 119.43781 | 30570 ft | 464 kts | 85° |
| 2026-04-11 06:17 | -30.68953 | 119.47457 | 29950 ft | 460 kts | 84° |
| 2026-04-11 06:17 | -30.68778 | 119.51191 | 29344 ft | 454 kts | 85° |
| 2026-04-11 06:17 | -30.68604 | 119.54786 | 28774 ft | 449 kts | 85° |
| 2026-04-11 06:17 | -30.68431 | 119.58385 | 28211 ft | 444 kts | 85° |
| 2026-04-11 06:18 | -30.68257 | 119.61948 | 27654 ft | 440 kts | 86° |
| 2026-04-11 06:18 | -30.68086 | 119.65484 | 27094 ft | 436 kts | 85° |
| 2026-04-11 06:18 | -30.67918 | 119.68990 | 26544 ft | 433 kts | 85° |
| 2026-04-11 06:18 | -30.67748 | 119.72468 | 26011 ft | 430 kts | 85° |
| 2026-04-11 06:19 | -30.67576 | 119.75928 | 25480 ft | 428 kts | 85° |
| 2026-04-11 06:19 | -30.67404 | 119.79367 | 24960 ft | 426 kts | 85° |
| 2026-04-11 06:19 | -30.67231 | 119.82796 | 24446 ft | 424 kts | 85° |
| 2026-04-11 06:19 | -30.67055 | 119.86211 | 23962 ft | 422 kts | 85° |
| 2026-04-11 06:20 | -30.66881 | 119.89610 | 23426 ft | 421 kts | 85° |
| 2026-04-11 06:20 | -30.66706 | 119.92997 | 22939 ft | 418 kts | 85° |
| 2026-04-11 06:20 | -30.66532 | 119.96359 | 22463 ft | 415 kts | 86° |
| 2026-04-11 06:20 | -30.66360 | 119.99702 | 21980 ft | 414 kts | 85° |
| 2026-04-11 06:21 | -30.66188 | 120.03031 | 21494 ft | 412 kts | 86° |
| 2026-04-11 06:21 | -30.66015 | 120.06341 | 21000 ft | 410 kts | 85° |
| 2026-04-11 06:21 | -30.65842 | 120.09641 | 20502 ft | 408 kts | 86° |
| 2026-04-11 06:21 | -30.65670 | 120.12929 | 19983 ft | 408 kts | 86° |
| 2026-04-11 06:22 | -30.65499 | 120.16211 | 19472 ft | 407 kts | 86° |
| 2026-04-11 06:22 | -30.65331 | 120.19446 | 18949 ft | 406 kts | 86° |
| 2026-04-11 06:22 | -30.65160 | 120.22699 | 18400 ft | 400 kts | 86° |
| 2026-04-11 06:22 | -30.64990 | 120.25891 | 17836 ft | 392 kts | 86° |
| 2026-04-11 06:23 | -30.64823 | 120.29019 | 17326 ft | 384 kts | 87° |
| 2026-04-11 06:23 | -30.64659 | 120.32080 | 16815 ft | 376 kts | 87° |
| 2026-04-11 06:23 | -30.64496 | 120.35086 | 16307 ft | 369 kts | 87° |
| 2026-04-11 06:23 | -30.64335 | 120.38035 | 15807 ft | 363 kts | 87° |
| 2026-04-11 06:24 | -30.64175 | 120.40937 | 15323 ft | 358 kts | 87° |
| 2026-04-11 06:24 | -30.64017 | 120.43803 | 14835 ft | 353 kts | 86° |
| 2026-04-11 06:24 | -30.63863 | 120.46647 | 14354 ft | 354 kts | 87° |
| 2026-04-11 06:24 | -30.63708 | 120.49492 | 13844 ft | 351 kts | 86° |
| 2026-04-11 06:25 | -30.63552 | 120.52299 | 13336 ft | 346 kts | 86° |
| 2026-04-11 06:25 | -30.63399 | 120.55067 | 12860 ft | 341 kts | 86° |
| 2026-04-11 06:25 | -30.63247 | 120.57796 | 12392 ft | 336 kts | 86° |
| 2026-04-11 06:25 | -30.63096 | 120.60486 | 11926 ft | 332 kts | 86° |
| 2026-04-11 06:26 | -30.62947 | 120.63153 | 11469 ft | 329 kts | 86° |
| 2026-04-11 06:26 | -30.62799 | 120.65800 | 11017 ft | 328 kts | 86° |
| 2026-04-11 06:26 | -30.62649 | 120.68449 | 10607 ft | 329 kts | 86° |
| 2026-04-11 06:26 | -30.62501 | 120.71055 | 10479 ft | 318 kts | 86° |
| 2026-04-11 06:27 | -30.62355 | 120.73595 | 10273 ft | 312 kts | 86° |
| 2026-04-11 06:27 | -30.62211 | 120.76085 | 10215 ft | 310 kts | 86° |
| 2026-04-11 06:27 | -30.62066 | 120.78589 | 10043 ft | 312 kts | 86° |
| 2026-04-11 06:27 | -30.61924 | 120.81074 | 9679 ft | 311 kts | 86° |
| 2026-04-11 06:28 | -30.61779 | 120.83617 | 9267 ft | 311 kts | 86° |
| 2026-04-11 06:28 | -30.61635 | 120.86100 | 8895 ft | 310 kts | 86° |
| 2026-04-11 06:28 | -30.61491 | 120.88592 | 8601 ft | 307 kts | 86° |
| 2026-04-11 06:28 | -30.61562 | 120.91054 | 8266 ft | 305 kts | 101° |
| 2026-04-11 06:29 | -30.62157 | 120.93409 | 7881 ft | 304 kts | 111° |
| 2026-04-11 06:29 | -30.62892 | 120.95695 | 7622 ft | 300 kts | 111° |
| 2026-04-11 06:29 | -30.63617 | 120.97960 | 7248 ft | 299 kts | 110° |
| 2026-04-11 06:29 | -30.64332 | 121.00201 | 6880 ft | 294 kts | 110° |
| 2026-04-11 06:30 | -30.65037 | 121.02422 | 6443 ft | 292 kts | 110° |
| 2026-04-11 06:30 | -30.65735 | 121.04625 | 5996 ft | 289 kts | 110° |
| 2026-04-11 06:30 | -30.66422 | 121.06793 | 5611 ft | 284 kts | 109° |
| 2026-04-11 06:30 | -30.67102 | 121.08927 | 5235 ft | 279 kts | 108° |
| 2026-04-11 06:31 | -30.67771 | 121.11029 | 4852 ft | 275 kts | 109° |
| 2026-04-11 06:31 | -30.68424 | 121.13089 | 4572 ft | 266 kts | 108° |
| 2026-04-11 06:31 | -30.69045 | 121.15045 | 4447 ft | 251 kts | 108° |
| 2026-04-11 06:31 | -30.69630 | 121.16887 | 4316 ft | 236 kts | 109° |
| 2026-04-11 06:32 | -30.70181 | 121.18630 | 4205 ft | 223 kts | 107° |
| 2026-04-11 06:32 | -30.70709 | 121.20270 | 4078 ft | 210 kts | 107° |
| 2026-04-11 06:32 | -30.71205 | 121.21804 | 3961 ft | 196 kts | 108° |
| 2026-04-11 06:32 | -30.71662 | 121.23221 | 3833 ft | 180 kts | 107° |
| 2026-04-11 06:33 | -30.72085 | 121.24533 | 3718 ft | 168 kts | 109° |
| 2026-04-11 06:33 | -30.72482 | 121.25763 | 3563 ft | 161 kts | 108° |
| 2026-04-11 06:33 | -30.72878 | 121.26999 | 3298 ft | 162 kts | 107° |
| 2026-04-11 06:33 | -30.73246 | 121.28139 | 3183 ft | 158 kts | 107° |
| 2026-04-11 06:34 | -30.73629 | 121.29331 | 3112 ft | 156 kts | 108° |
| 2026-04-11 06:34 | -30.73993 | 121.30459 | 3094 ft | 146 kts | 109° |
| 2026-04-11 06:34 | -30.74337 | 121.31527 | 3099 ft | 140 kts | 107° |
| 2026-04-11 06:34 | -30.74677 | 121.32580 | 3129 ft | 140 kts | 109° |
| 2026-04-11 06:35 | -30.75018 | 121.33638 | 3125 ft | 139 kts | 106° |
| 2026-04-11 06:35 | -30.75356 | 121.34687 | 3120 ft | 137 kts | 106° |
| 2026-04-11 06:35 | -30.75691 | 121.35722 | 3109 ft | 137 kts | 107° |
| 2026-04-11 06:35 | -30.76025 | 121.36754 | 3066 ft | 136 kts | 107° |
| 2026-04-11 06:36 | -30.76357 | 121.37785 | 3006 ft | 136 kts | 106° |
| 2026-04-11 06:36 | -30.76694 | 121.38829 | 2950 ft | 141 kts | 108° |
| 2026-04-11 06:36 | -30.77051 | 121.39898 | 2561 ft | 141 kts | 108° |
| 2026-04-11 06:36 | -30.77411 | 121.40949 | 2171 ft | 140 kts | 108° |
| 2026-04-11 06:37 | -30.77719 | 121.41987 | 1967 ft | 134 kts | 107° |
| 2026-04-11 06:37 | -30.78047 | 121.43019 | 1745 ft | 138 kts | 110° |
| 2026-04-11 06:37 | -30.78378 | 121.44036 | 1502 ft | 132 kts | 108° |
| 2026-04-11 06:37 | -30.78692 | 121.45029 | 1306 ft | 130 kts | 109° |
| 2026-04-11 06:38 | -30.78998 | 121.45988 | 1185 ft | 121 kts | 110° |
| 2026-04-11 06:38 | -30.79189 | 121.46593 | 1178 ft | 36 kts | 110° |
| 2026-04-11 06:38 | -30.79249 | 121.46783 | 1176 ft | 29 kts | 111° |
| 2026-04-11 06:38 | -30.79324 | 121.47015 | 1182 ft | 31 kts | 110° |
| 2026-04-11 06:39 | -30.79395 | 121.47237 | 1182 ft | 14 kts | 110° |
| 2026-04-11 06:39 | -30.79428 | 121.47343 | 1176 ft | 9 kts | 110° |
| 2026-04-11 06:39 | -30.79430 | 121.47400 | 1179 ft | 3 kts | 164° |
| 2026-04-11 06:39 | -30.79438 | 121.47369 | 1177 ft | 6 kts | 281° |
| 2026-04-11 06:40 | -30.79394 | 121.47231 | 1182 ft | 28 kts | 291° |
| 2026-04-11 06:40 | -30.79324 | 121.47012 | 1182 ft | 30 kts | 290° |
| 2026-04-11 06:40 | -30.79250 | 121.46780 | 1175 ft | 32 kts | 290° |
| 2026-04-11 06:40 | -30.79169 | 121.46528 | 1178 ft | 34 kts | 290° |
| 2026-04-11 06:41 | -30.79085 | 121.46271 | 1180 ft | 26 kts | 291° |
| 2026-04-11 06:41 | -30.79029 | 121.46089 | 1183 ft | 21 kts | 289° |
| 2026-04-11 06:41 | -30.78977 | 121.45920 | 1183 ft | 23 kts | 290° |
| 2026-04-11 06:41 | -30.78941 | 121.45803 | 1184 ft | 10 kts | 289° |
| 2026-04-11 06:42 | -30.78916 | 121.45731 | 1184 ft | 10 kts | 303° |
| 2026-04-11 06:42 | -30.78845 | 121.45722 | 1182 ft | 13 kts | 18° |
| 2026-04-11 06:42 | -30.78756 | 121.45760 | 1182 ft | 11 kts | 19° |
| 2026-04-11 06:42 | -30.78702 | 121.45783 | 1181 ft | 7 kts | 21° |
| 2026-04-11 06:43 | -30.78676 | 121.45795 | 1181 ft | 5 kts | 21° |
| 2026-04-11 06:43 | -30.78642 | 121.45781 | 1181 ft | 6 kts | 322° |
| 2026-04-11 06:43 | -30.78617 | 121.45765 | 1181 ft | 4 kts | 357° |
| 2026-04-11 06:43 | -30.78606 | 121.45777 | 1181 ft | 0 kts | 61° |
| 2026-04-11 06:44 | -30.78600 | 121.45789 | 1181 ft | 3 kts | 60° |
| 2026-04-11 06:44 | -30.78592 | 121.45805 | 1181 ft | 1 kts | 59° |
| 2026-04-11 06:44 | -30.78592 | 121.45806 | 1181 ft | 0 kts | 62° |